METAR Data
IDs: Format: Raw Decoded Include TAF

Data at: 1401 UTC 11 Dec 2018

K6R3 111355Z AUTO 00000KT 10SM CLR 00/00 A3044 RMK AO2 T10021002
K6R3 111335Z AUTO 00000KT 10SM CLR M01/M01 A3043 RMK AO2 T10091009
K6R3 111315Z AUTO 00000KT 10SM CLR M01/M01 A3044 RMK AO2 T10101010
K6R3 111255Z AUTO 00000KT 10SM CLR M01/M01 A3044 RMK AO2 T10111011
K6R3 111235Z AUTO 00000KT 10SM CLR M01/M01 A3044 RMK AO2 T10101010
K6R3 111215Z AUTO 00000KT 7SM CLR M01/M01 A3044 RMK AO2 T10101010
K6R3 111155Z AUTO 00000KT 10SM CLR M01/M01 A3044 RMK AO2 T10081008 10005 21009
K6R3 111135Z AUTO 00000KT 10SM CLR M01/M01 A3043 RMK AO2 T10091009
K6R3 111115Z AUTO 00000KT 10SM CLR M01/M01 A3042 RMK AO2 T10061006
K6R3 111055Z AUTO 00000KT 10SM CLR M01/M01 A3042 RMK AO2 T10071007
K6R3 111035Z AUTO 00000KT 7SM CLR 00/00 A3041 RMK AO2 T10051005
K6R3 111015Z AUTO 00000KT 10SM CLR 00/00 A3041 RMK AO2 T10031003
K6R3 110955Z AUTO 00000KT 7SM CLR 00/00 A3042 RMK AO2 T10041004
K6R3 110935Z AUTO 00000KT 7SM CLR 00/00 A3042 RMK AO2 T10031003
K6R3 110915Z AUTO 00000KT 10SM CLR 00/00 A3042 RMK AO2 T10011001
K6R3 110855Z AUTO 00000KT 10SM CLR 00/00 A3042 RMK AO2 T00000000
K6R3 110835Z AUTO 00000KT 7SM CLR 00/00 A3042 RMK AO2 T10021002
K6R3 110815Z AUTO 00000KT 7SM CLR 00/00 A3042 RMK AO2 T00000000
K6R3 110755Z AUTO 00000KT 7SM CLR 00/00 A3043 RMK AO2 T00000000
K6R3 110735Z AUTO 00000KT 7SM CLR 00/00 A3042 RMK AO2 T00000000
K6R3 110715Z AUTO 00000KT 7SM CLR 00/00 A3042 RMK AO2 T00000000
K6R3 110655Z AUTO 00000KT 7SM CLR 00/00 A3041 RMK AO2 T00020002
K6R3 110635Z AUTO 00000KT 7SM CLR 00/00 A3041 RMK AO2 T00020002
K6R3 110615Z AUTO 00000KT 7SM CLR 01/01 A3041 RMK AO2 T00050005
K6R3 110555Z AUTO 00000KT 7SM CLR 01/01 A3042 RMK AO2 T00050005 10057 20005 401410001
K6R3 110535Z AUTO 00000KT 10SM CLR 01/01 A3042 RMK AO2 T00050005
K6R3 110515Z AUTO 00000KT 7SM CLR 01/01 A3042 RMK AO2 T00080008
K6R3 110455Z AUTO 00000KT 7SM CLR 01/01 A3042 RMK AO2 T00100010
K6R3 110435Z AUTO 00000KT 10SM CLR 01/01 A3041 RMK AO2 T00120012
K6R3 110415Z AUTO 00000KT 7SM CLR 01/01 A3041 RMK AO2 T00130013
K6R3 110355Z AUTO 00000KT 7SM CLR 02/02 A3041 RMK AO2 T00170017
K6R3 110335Z AUTO 00000KT 10SM CLR 02/02 A3041 RMK AO2 T00200020
K6R3 110315Z AUTO 00000KT 10SM CLR 02/02 A3041 RMK AO2 T00220022
K6R3 110255Z AUTO 00000KT 7SM CLR 02/02 A3041 RMK AO2 T00210021
K6R3 110235Z AUTO 00000KT 7SM CLR 03/03 A3041 RMK AO2 T00250025
K6R3 110215Z AUTO 00000KT 10SM CLR 03/03 A3041 RMK AO2 T00270027
K6R3 110155Z AUTO 00000KT 7SM CLR 03/03 A3041 RMK AO2 T00300030
K6R3 110135Z AUTO 00000KT 10SM CLR 03/03 A3041 RMK AO2 T00340034
K6R3 110115Z AUTO 00000KT 10SM CLR 04/04 A3040 RMK AO2 T00400040
K6R3 110055Z AUTO 00000KT 10SM CLR 04/04 A3040 RMK AO2 T00410041
K6R3 110035Z AUTO 00000KT 10SM CLR 05/05 A3039 RMK AO2 T00450045
K6R3 110015Z AUTO 00000KT 10SM CLR 05/05 A3039 RMK AO2 T00510049
K6R3 102355Z AUTO 00000KT 10SM CLR 06/05 A3039 RMK AO2 T00590051 10141 20059
K6R3 102335Z AUTO 00000KT 10SM CLR 07/06 A3038 RMK AO2 T00660055
K6R3 102315Z AUTO 00000KT 10SM CLR 08/06 A3037 RMK AO2 T00830055
K6R3 102255Z AUTO 00000KT 7SM CLR 11/04 A3037 RMK AO2 T01100040
K6R3 102235Z AUTO 00000KT 10SM CLR 13/02 A3036 RMK AO2 T01250015
K6R3 102215Z AUTO 02003KT 7SM CLR 13/01 A3036 RMK AO2 T01310007
K6R3 102155Z AUTO 35004KT 7SM CLR 14/00 A3036 RMK AO2 T01360002
K6R3 102135Z AUTO 36005KT 7SM CLR 14/00 A3035 RMK AO2 T01410000
K6R3 102115Z AUTO 36007KT 7SM CLR 14/00 A3035 RMK AO2 T01390000
K6R3 102055Z AUTO 36006KT 7SM CLR 14/00 A3035 RMK AO2 T01410002
K6R3 102035Z AUTO 03004KT 10SM CLR 14/01 A3035 RMK AO2 T01410006
K6R3 102015Z AUTO 02004KT 7SM CLR 14/00 A3035 RMK AO2 T01400002
K6R3 101955Z AUTO 01007KT 10SM CLR 14/01 A3036 RMK AO2 T01390005
K6R3 101935Z AUTO 02004KT 7SM CLR 14/00 A3036 RMK AO2 T01370000
K6R3 101915Z AUTO 01006KT 7SM CLR 14/00 A3036 RMK AO2 T01351001
K6R3 101855Z AUTO 36006KT 5SM HZ CLR 13/00 A3036 RMK AO2 T01311005
K6R3 101835Z AUTO 36005KT 7SM CLR 13/M01 A3037 RMK AO2 T01311011
K6R3 101815Z AUTO 34004KT 10SM CLR 13/M01 A3038 RMK AO2 T01251008
K6R3 101755Z AUTO 35005KT 7SM CLR 12/M01 A3039 RMK AO2 T01201011 10120 20001
K6R3 101735Z AUTO 35008KT 10SM CLR 11/M01 A3040 RMK AO2 T01131014
K6R3 101715Z AUTO 35006KT 7SM CLR 11/00 A3040 RMK AO2 T01081003
K6R3 101655Z AUTO 01006KT 10SM CLR 10/00 A3041 RMK AO2 T01000000
K6R3 101635Z AUTO 02004KT 7SM CLR 09/01 A3041 RMK AO2 T00940011
K6R3 101615Z AUTO 36008KT 10SM CLR 09/02 A3041 RMK AO2 T00890016
K6R3 101555Z AUTO 36003KT 10SM CLR 08/03 A3042 RMK AO2 T00810026
K6R3 101535Z AUTO 36005KT 10SM CLR 07/03 A3041 RMK AO2 T00730030
K6R3 101515Z AUTO 35005KT 10SM CLR 06/04 A3041 RMK AO2 T00600035
K6R3 101455Z AUTO 33005KT 10SM CLR 05/04 A3041 RMK AO2 T00470036
K6R3 101435Z AUTO 34004KT 10SM CLR 04/04 A3040 RMK AO2 T00350035
K6R3 101415Z AUTO 33003KT 7SM CLR 03/03 A3040 RMK AO2 T00250025
K6R3 101355Z AUTO 00000KT 7SM CLR 02/02 A3039 RMK AO2 T00200020
K6R3 101335Z AUTO 00000KT 7SM CLR 01/01 A3038 RMK AO2 T00110011
K6R3 101315Z AUTO 00000KT 7SM CLR 01/01 A3038 RMK AO2 T00070007
K6R3 101255Z AUTO 00000KT 4SM BR CLR 00/00 A3037 RMK AO2 T00020002
K6R3 101235Z AUTO 00000KT 4SM BR CLR 00/00 A3036 RMK AO2 T00020002
K6R3 101215Z AUTO 00000KT 5SM BR CLR 01/01 A3036 RMK AO2 T00050005
K6R3 101155Z AUTO 00000KT 4SM BR CLR 01/01 A3035 RMK AO2 T00050005 10031 20005
K6R3 101135Z AUTO 00000KT 3SM BR CLR 01/01 A3035 RMK AO2 T00070007
K6R3 101115Z AUTO 00000KT 3SM BR CLR 01/01 A3034 RMK AO2 T00100010
K6R3 101055Z AUTO 00000KT 4SM BR CLR 02/02 A3034 RMK AO2 T00150015
K6R3 101035Z AUTO 00000KT 5SM BR CLR 02/02 A3034 RMK AO2 T00230023
K6R3 101015Z AUTO 00000KT 4SM BR CLR 02/02 A3034 RMK AO2 T00230023
K6R3 100955Z AUTO 00000KT 5SM BR CLR 02/02 A3034 RMK AO2 T00200020
K6R3 100935Z AUTO 00000KT 4SM BR CLR 02/02 A3034 RMK AO2 T00200020
K6R3 100915Z AUTO 00000KT 4SM BR CLR 02/02 A3034 RMK AO2 T00230023
K6R3 100855Z AUTO 00000KT 5SM BR CLR 03/03 A3034 RMK AO2 T00300030
K6R3 100835Z AUTO 34003KT 5SM BR CLR 03/03 A3034 RMK AO2 T00260026
K6R3 100815Z AUTO 00000KT 4SM BR CLR 02/02 A3035 RMK AO2 T00200020
K6R3 100755Z AUTO 00000KT 3SM BR CLR 02/02 A3035 RMK AO2 T00200020
K6R3 100735Z AUTO 00000KT 4SM BR CLR 02/02 A3035 RMK AO2 T00210021
K6R3 100715Z AUTO 00000KT 5SM BR CLR 02/02 A3035 RMK AO2 T00210021
K6R3 100655Z AUTO 00000KT 3SM BR CLR 03/03 A3035 RMK AO2 T00250025
K6R3 100635Z AUTO 00000KT 2SM BR CLR 03/03 A3035 RMK AO2 T00270027
K6R3 100615Z AUTO 00000KT 2 1/2SM BR CLR 03/03 A3035 RMK AO2 T00300030
K6R3 100555Z AUTO 00000KT 5SM BR CLR 03/03 A3036 RMK AO2 T00320032 10076 20032 400850032
K6R3 100535Z AUTO 00000KT 4SM BR CLR 03/03 A3036 RMK AO2 T00330033
K6R3 100515Z AUTO 00000KT 4SM BR SCT070 04/04 A3036 RMK AO2 T00370037
K6R3 100455Z AUTO 00000KT 5SM BR BKN070 04/04 A3036 RMK AO2 T00390039
K6R3 100435Z AUTO 00000KT 4SM BR CLR 04/04 A3036 RMK AO2 T00380038
K6R3 100415Z AUTO 00000KT 5SM BR CLR 04/04 A3036 RMK AO2 T00410041
K6R3 100355Z AUTO 00000KT 5SM BR CLR 05/05 A3035 RMK AO2 T00450045
K6R3 100335Z AUTO 00000KT 5SM BR CLR 05/05 A3035 RMK AO2 T00490049
K6R3 100315Z AUTO 00000KT 5SM BR SCT028 06/06 A3034 RMK AO2 T00570057
K6R3 100255Z AUTO 00000KT 7SM OVC028 07/07 A3034 RMK AO2 T00700065
K6R3 100235Z AUTO 00000KT 7SM OVC028 07/07 A3034 RMK AO2 T00730065
K6R3 100215Z AUTO 00000KT 7SM OVC028 08/07 A3034 RMK AO2 T00750065